Search for airport 
image banner adimage banner adimage banner ad
image banner ad

PS57 - Mount Nittany Medical Center

Located in State College, United States

ICAO - PS57, IATA -

Data provided by Airmate  

General information

Coordinates: N40°49'10" W77°50'35"
Elevation is 1152 feet MSL.
Magnetic variation is -11° East
View others Airports in Pennsylvania

Operational data

Special qualification required
Current time UTC:
Current local time:
Weather at : KUNV - University Park ( 3 km )
METAR: KUNV 091653Z 18003KT 4SM RA BKN011 BKN019 OVC034 04/03 A3002
TAF: KUNV 091537Z 0916/1012 19007KT 4SM -RA BR OVC020 FM100300 35008G15KT 2SM -RA BR OVC006 WS020/23036KT FM100800 33008G15KT P6SM BKN009 OVC012
View NOTAMs / SUP AIP / TFR affecting this airport [VIEW]
Communications frequencies: [VIEW]

Runways:

Airport contact information

Address: State College United States

Satellite view of PS57